createdAt,value
2022-11-04T00:00:18.746Z,67.85
2022-11-04T00:01:27.904Z,67.93
2022-11-04T00:02:40.256Z,67.93
2022-11-04T00:03:50.905Z,68.00
2022-11-04T00:06:15.557Z,68.31
2022-11-04T00:07:43.523Z,68.36
2022-11-04T00:08:54.425Z,68.35
2022-11-04T00:10:04.280Z,68.48
2022-11-04T00:12:45.981Z,68.44
2022-11-04T00:13:56.251Z,68.08
2022-11-04T00:16:58.206Z,68.46
2022-11-04T00:19:22.911Z,68.63
2022-11-04T00:22:50.154Z,68.56
2022-11-04T00:25:53.358Z,68.68
2022-11-04T00:28:43.674Z,69.55
2022-11-04T00:29:53.076Z,69.29
2022-11-04T00:31:23.034Z,69.30
2022-11-04T00:32:51.761Z,69.38
2022-11-04T00:35:19.684Z,69.19
2022-11-04T00:37:45.035Z,69.57
2022-11-04T00:38:53.842Z,69.79
2022-11-04T00:40:03.685Z,69.98
2022-11-04T00:41:29.292Z,70.08
2022-11-04T00:43:59.172Z,70.34
2022-11-04T00:45:09.256Z,70.32
2022-11-04T00:46:23.717Z,70.05
2022-11-04T00:48:50.224Z,69.36
2022-11-04T00:51:21.896Z,68.46
2022-11-04T00:52:30.861Z,68.09
2022-11-04T00:53:40.328Z,68.33
2022-11-04T00:54:49.546Z,68.50
2022-11-04T00:57:16.284Z,68.23
2022-11-04T00:59:40.640Z,68.51
2022-11-04T01:02:04.386Z,68.58
2022-11-04T01:03:13.601Z,68.60
2022-11-04T01:05:38.225Z,68.45
2022-11-04T01:06:47.778Z,68.45
2022-11-04T01:07:57.615Z,68.47
2022-11-04T01:09:08.556Z,68.37
2022-11-04T01:10:19.424Z,68.42
2022-11-04T01:11:31.053Z,68.59
2022-11-04T01:12:40.225Z,68.64
2022-11-04T01:15:08.120Z,68.68
2022-11-04T01:17:33.920Z,68.84
2022-11-04T01:18:43.156Z,68.84
2022-11-04T01:19:53.510Z,68.86
2022-11-04T01:21:06.282Z,68.81
2022-11-04T01:23:31.498Z,68.81
2022-11-04T01:24:40.692Z,68.96
2022-11-04T01:25:56.655Z,68.84
2022-11-04T01:28:26.963Z,68.97
2022-11-04T01:30:52.676Z,68.89
2022-11-04T01:32:02.028Z,68.90
2022-11-04T01:33:10.738Z,69.00
2022-11-04T01:34:20.405Z,69.26
2022-11-04T01:35:29.515Z,69.26
2022-11-04T01:37:54.932Z,69.40
2022-11-04T01:39:05.895Z,69.52
2022-11-04T01:40:15.944Z,69.39
2022-11-04T01:42:44.432Z,69.23
2022-11-04T01:43:59.596Z,69.37
2022-11-04T01:45:14.428Z,69.54
2022-11-04T01:46:46.387Z,69.73
2022-11-04T01:49:33.298Z,70.46
2022-11-04T01:50:47.118Z,70.98
2022-11-04T01:53:29.705Z,71.84
2022-11-04T01:56:01.237Z,71.81
2022-11-04T01:57:15.118Z,71.75
2022-11-04T01:58:28.811Z,71.63
2022-11-04T01:59:41.516Z,71.51
2022-11-04T02:02:07.948Z,70.79
2022-11-04T02:04:36.957Z,70.23
2022-11-04T02:05:47.186Z,70.05
2022-11-04T02:08:20.995Z,69.60
2022-11-04T02:09:33.130Z,69.38
2022-11-04T02:12:28.797Z,68.73
2022-11-04T02:13:38.123Z,69.00
2022-11-04T02:14:50.437Z,69.37
2022-11-04T02:19:14.571Z,70.07
2022-11-04T02:21:51.529Z,70.73
2022-11-04T02:26:47.051Z,70.71
2022-11-04T02:29:59.772Z,70.01
2022-11-04T02:35:53.248Z,69.38
2022-11-04T02:38:51.178Z,68.12
2022-11-04T02:41:50.411Z,68.58
2022-11-04T02:44:48.695Z,69.22
2022-11-04T02:47:25.124Z,69.45
2022-11-04T02:50:17.027Z,70.24
2022-11-04T02:54:50.459Z,70.48
2022-11-04T02:57:25.590Z,70.14
2022-11-04T03:00:06.510Z,70.03
2022-11-04T03:01:18.985Z,69.97
2022-11-04T03:02:35.755Z,69.50
2022-11-04T03:05:11.198Z,68.84
2022-11-04T03:08:03.659Z,69.69
2022-11-04T03:09:15.884Z,69.74
2022-11-04T03:10:38.312Z,69.87
2022-11-04T03:13:29.330Z,70.37
2022-11-04T03:14:45.198Z,70.58
2022-11-04T03:16:03.620Z,70.74
2022-11-04T03:17:22.890Z,70.52
2022-11-04T03:18:57.496Z,70.31
2022-11-04T03:20:20.075Z,70.23
2022-11-04T03:21:32.539Z,70.44
2022-11-04T03:24:09.405Z,69.99
2022-11-04T03:25:21.756Z,69.42
2022-11-04T03:28:14.256Z,69.13
2022-11-04T03:30:55.262Z,69.39
2022-11-04T03:34:45.673Z,70.25
2022-11-04T03:35:54.701Z,70.23
2022-11-04T03:38:23.179Z,70.74
2022-11-04T03:39:32.568Z,70.71
2022-11-04T03:40:47.943Z,70.80
2022-11-04T03:43:22.440Z,70.43
2022-11-04T03:45:47.707Z,70.19
2022-11-04T03:47:05.775Z,70.14
2022-11-04T03:48:15.102Z,70.25
2022-11-04T03:50:47.171Z,69.86
2022-11-04T03:51:58.902Z,68.62
2022-11-04T03:53:10.674Z,68.54
2022-11-04T03:54:20.808Z,68.96
2022-11-04T03:57:36.230Z,68.64
2022-11-04T03:59:13.148Z,68.59
2022-11-04T04:02:00.127Z,69.53
2022-11-04T04:06:21.645Z,70.40
2022-11-04T04:08:57.623Z,70.75
2022-11-04T04:10:31.431Z,70.56
2022-11-04T04:12:08.997Z,70.65
2022-11-04T04:16:09.662Z,69.60
2022-11-04T04:17:30.331Z,69.23
2022-11-04T04:20:05.537Z,69.10
2022-11-04T04:24:15.936Z,70.06
2022-11-04T04:27:22.204Z,70.32
2022-11-04T04:29:47.714Z,70.13
2022-11-04T04:31:00.297Z,70.56
2022-11-04T04:32:09.538Z,69.97
2022-11-04T04:33:19.744Z,69.61
2022-11-04T04:34:31.306Z,69.21
2022-11-04T04:35:44.538Z,69.26
2022-11-04T04:37:06.456Z,69.55
2022-11-04T04:38:44.453Z,69.84
2022-11-04T04:41:51.038Z,69.93
2022-11-04T04:45:05.709Z,70.50
2022-11-04T04:46:15.667Z,70.35
2022-11-04T04:48:43.448Z,71.41
2022-11-04T07:05:37.126Z,83.77
2022-11-04T07:08:02.001Z,82.82
2022-11-04T07:10:29.621Z,81.74
2022-11-04T07:12:57.280Z,80.41
2022-11-04T07:15:27.440Z,79.21
2022-11-04T07:16:34.359Z,78.70
2022-11-04T07:19:01.524Z,76.89
2022-11-04T07:21:29.544Z,75.32
2022-11-04T07:23:55.351Z,74.94
2022-11-04T07:26:21.443Z,73.83
2022-11-04T07:28:46.251Z,73.06
2022-11-04T07:31:14.008Z,72.28
2022-11-04T07:33:41.755Z,71.88
2022-11-04T07:36:07.724Z,69.71
2022-11-04T07:38:32.971Z,70.48
2022-11-04T07:40:58.634Z,70.34
2022-11-04T07:43:24.702Z,70.33
2022-11-04T07:44:34.506Z,70.19
2022-11-04T07:47:04.517Z,69.85
2022-11-04T07:48:13.210Z,69.42
2022-11-04T07:49:22.451Z,69.52
2022-11-04T07:51:48.097Z,67.81
2022-11-04T07:54:13.016Z,68.93
2022-11-04T07:55:21.755Z,68.91
2022-11-04T07:57:46.838Z,69.84
2022-11-04T07:58:56.549Z,70.36
2022-11-04T08:01:40.924Z,70.82
2022-11-04T08:02:50.216Z,70.77
2022-11-04T08:05:14.726Z,69.93
2022-11-04T08:07:39.598Z,69.70
2022-11-04T08:10:06.419Z,69.71
2022-11-04T08:12:35.558Z,69.93
2022-11-04T08:15:01.965Z,70.14
2022-11-04T08:17:31.063Z,70.37
2022-11-04T08:19:57.658Z,70.51
2022-11-04T08:22:23.199Z,70.44
2022-11-04T08:24:48.638Z,69.70
2022-11-04T08:27:15.093Z,68.93
2022-11-04T08:29:40.145Z,69.05
2022-11-04T08:32:13.920Z,69.21
2022-11-04T08:34:41.589Z,69.90
2022-11-04T08:37:06.369Z,70.27
2022-11-04T08:39:31.704Z,70.46
2022-11-04T08:41:57.389Z,69.93
2022-11-04T08:44:23.359Z,69.95
2022-11-04T08:46:48.511Z,69.81
2022-11-04T08:49:19.522Z,69.70
2022-11-04T08:51:44.499Z,70.67
2022-11-04T08:54:10.792Z,70.56
2022-11-04T08:56:38.471Z,70.09
2022-11-04T08:59:04.135Z,69.39
2022-11-04T09:01:36.561Z,69.17
2022-11-04T09:04:00.754Z,69.13
2022-11-04T09:07:43.712Z,70.11
2022-11-04T09:10:12.075Z,69.86
2022-11-04T09:12:37.599Z,69.67
2022-11-04T09:15:02.648Z,69.26
2022-11-04T09:16:13.412Z,69.44
2022-11-04T09:18:38.097Z,69.72
2022-11-04T09:21:04.665Z,70.57
2022-11-04T09:23:29.201Z,70.24
2022-11-04T09:25:53.398Z,69.89
2022-11-04T09:28:18.336Z,69.16
2022-11-04T09:30:43.563Z,68.80
2022-11-04T09:33:07.586Z,68.79
2022-11-04T09:35:33.188Z,69.07
2022-11-04T09:38:00.886Z,69.56
2022-11-04T09:40:27.533Z,69.44
2022-11-04T09:43:33.239Z,69.63
2022-11-04T09:46:17.506Z,69.74
2022-11-04T09:48:48.833Z,69.34
2022-11-04T09:51:39.695Z,69.73
2022-11-04T09:54:05.877Z,69.80
2022-11-04T09:56:43.296Z,69.53
2022-11-04T09:59:14.475Z,70.13
2022-11-04T10:01:42.586Z,69.26
2022-11-04T10:02:55.988Z,69.26
2022-11-04T10:06:07.735Z,68.91
2022-11-04T14:54:40.864Z,75.10
2022-11-04T14:57:18.019Z,74.17
2022-11-04T14:59:45.784Z,73.33
2022-11-04T15:06:34.892Z,69.95
2022-11-04T15:08:56.616Z,67.81
2022-11-04T15:12:00.230Z,67.86
2022-11-04T15:14:27.635Z,68.51
2022-11-04T15:16:58.632Z,68.33
2022-11-04T15:19:39.087Z,68.19
2022-11-04T15:22:12.103Z,68.29
2022-11-04T15:24:52.819Z,68.18
2022-11-04T15:27:41.273Z,68.72
2022-11-04T15:31:39.087Z,68.39
2022-11-04T15:34:14.481Z,68.98
2022-11-04T15:36:42.156Z,69.14
2022-11-04T15:37:52.783Z,69.51
2022-11-04T15:40:38.919Z,69.20
2022-11-04T15:43:26.939Z,69.21
2022-11-04T15:45:56.427Z,69.11
2022-11-04T15:48:37.494Z,69.19
2022-11-04T15:51:24.003Z,68.38
2022-11-04T15:53:55.945Z,67.69
2022-11-04T15:56:28.758Z,67.01
2022-11-04T15:58:58.920Z,67.91
2022-11-04T16:01:32.370Z,67.55
2022-11-04T16:04:28.429Z,67.67
2022-11-04T16:08:30.049Z,67.84
2022-11-04T16:11:17.749Z,68.08
2022-11-04T16:13:46.877Z,68.14
2022-11-04T16:17:44.472Z,68.86
2022-11-04T16:20:37.365Z,68.83
2022-11-04T16:23:04.396Z,69.36
2022-11-04T16:25:38.351Z,69.34
2022-11-04T16:28:04.051Z,69.53
2022-11-04T16:32:22.148Z,69.65
2022-11-04T16:34:49.728Z,69.70
2022-11-04T16:37:13.667Z,69.88
2022-11-04T16:39:38.259Z,70.05
2022-11-04T16:42:05.949Z,70.11
2022-11-04T16:45:00.597Z,69.81
2022-11-04T16:47:30.185Z,68.73
2022-11-04T16:49:55.302Z,68.72
2022-11-04T16:52:44.023Z,69.30
2022-11-04T16:55:09.342Z,68.69
2022-11-04T16:57:37.331Z,68.65
2022-11-04T17:00:01.503Z,68.13
2022-11-04T17:02:42.334Z,68.88
2022-11-04T17:05:09.800Z,68.21
2022-11-04T17:07:52.811Z,68.35
2022-11-04T17:10:23.186Z,68.71
2022-11-04T17:12:46.940Z,68.97
2022-11-04T17:15:13.240Z,69.39
2022-11-04T17:17:37.425Z,69.57
2022-11-04T17:20:05.325Z,68.97
2022-11-04T17:22:36.279Z,69.51
2022-11-04T17:25:00.801Z,69.27
2022-11-04T17:27:27.118Z,69.03
2022-11-04T17:29:53.216Z,69.51
2022-11-04T17:32:18.382Z,68.61
2022-11-04T17:34:42.773Z,68.55
2022-11-04T17:37:10.886Z,69.16
2022-11-04T17:39:35.042Z,69.09
2022-11-04T17:42:38.327Z,69.14
2022-11-04T17:45:17.194Z,69.33
2022-11-04T17:47:55.745Z,69.47
2022-11-04T17:50:29.639Z,69.77
2022-11-04T17:52:58.669Z,70.08
2022-11-04T17:55:27.644Z,70.49
2022-11-04T17:57:52.822Z,69.79
2022-11-04T18:00:21.559Z,69.43
2022-11-04T21:23:22.588Z,68.09
2022-11-04T21:25:51.403Z,68.52
2022-11-04T21:28:18.480Z,66.74
2022-11-04T21:30:51.370Z,67.32
2022-11-04T21:33:16.549Z,68.90
2022-11-04T21:35:43.911Z,68.54
2022-11-04T21:38:10.694Z,68.28
2022-11-04T21:40:35.623Z,69.59
2022-11-04T21:43:19.834Z,69.53
2022-11-04T21:45:44.372Z,69.73
2022-11-04T21:48:09.495Z,69.66
2022-11-04T21:50:34.544Z,71.15
2022-11-04T21:53:20.614Z,71.74
2022-11-04T21:55:45.858Z,70.77
2022-11-04T21:58:09.897Z,70.21
2022-11-04T22:00:34.690Z,70.30
2022-11-04T22:02:58.447Z,71.16
2022-11-04T22:05:23.313Z,70.85
2022-11-04T22:08:08.765Z,69.85
2022-11-04T22:10:35.119Z,68.42
2022-11-04T22:12:59.777Z,67.15
2022-11-04T22:15:44.232Z,66.52
2022-11-04T22:18:09.142Z,66.70
2022-11-04T22:20:35.266Z,65.92
2022-11-04T22:23:01.717Z,65.51
2022-11-04T22:24:13.274Z,65.57
2022-11-04T22:26:57.378Z,64.90
2022-11-04T22:29:22.045Z,65.70
2022-11-04T22:31:45.885Z,65.78
2022-11-04T22:34:10.950Z,65.89
2022-11-04T22:36:35.974Z,66.02
2022-11-04T22:39:01.704Z,66.40
2022-11-04T22:41:31.490Z,66.41
2022-11-04T22:43:56.077Z,66.27
2022-11-04T22:47:43.791Z,66.76
2022-11-04T22:50:09.091Z,66.34
2022-11-04T22:52:32.749Z,66.16
2022-11-04T22:55:00.048Z,67.25
2022-11-04T22:57:28.222Z,66.88
2022-11-04T22:59:54.559Z,66.74
2022-11-04T23:02:22.640Z,66.79
2022-11-04T23:04:47.111Z,66.87
2022-11-04T23:07:18.664Z,66.66
2022-11-04T23:10:03.942Z,66.39
2022-11-04T23:13:14.411Z,65.93
2022-11-04T23:16:18.098Z,65.53
2022-11-04T23:19:01.831Z,65.73
2022-11-04T23:21:48.793Z,66.30
2022-11-04T23:25:05.357Z,66.31
2022-11-04T23:27:47.782Z,66.78
2022-11-04T23:30:34.498Z,66.67
2022-11-04T23:33:17.553Z,66.06
2022-11-04T23:38:08.918Z,66.71
2022-11-04T23:40:34.498Z,66.74
2022-11-04T23:43:17.873Z,66.55
2022-11-04T23:46:19.487Z,66.32
2022-11-04T23:49:15.234Z,66.28
2022-11-04T23:52:19.041Z,66.80
2022-11-04T23:55:19.980Z,66.51
2022-11-04T23:58:21.436Z,66.77
